Terminal Aerodrome Forecast
Issued by NWS Dallas/Fort Worth, TX

Home | Current Version | Previous Version | Text Only | Print | Product List | Glossary On
Versions: 1 2 3 4 5 6 7 8 9 10 11 12 13 14 15 16 17 18 19 20 21 22 23 24 25 26 27 28 29 30 31 32 33 34 35 36 37 38 39 40 41
000
FTUS44 KFWD 260554 AAA
TAFACT
TAF AMD
KACT 260554Z 2606/2706 36005KT P6SM -RA SCT006 BKN012
     FM260700 36010KT P6SM -RA OVC008
      TEMPO 2610/2613 OVC005
     FM261500 01013KT P6SM OVC015
     FM262100 01012KT P6SM OVC050=

USA.gov is the U.S. government's official web portal to all federal, state and local government web resources and services.